createdAt,value
2023-05-02T00:01:26.986Z,100372.66
2023-05-02T00:03:53.927Z,100359.91
2023-05-02T00:06:20.851Z,100368.50
2023-05-02T00:08:49.349Z,100368.78
2023-05-02T00:11:16.238Z,100368.59
2023-05-02T00:13:44.072Z,100363.22
2023-05-02T00:16:13.520Z,100363.84
2023-05-02T00:18:40.381Z,100366.34
2023-05-02T00:21:07.747Z,100360.63
2023-05-02T00:23:34.695Z,100355.44
2023-05-02T00:26:01.489Z,100346.16
2023-05-02T00:28:28.459Z,100347.38
2023-05-02T00:30:55.249Z,100347.63
2023-05-02T00:33:22.286Z,100349.47
2023-05-02T00:35:49.086Z,100350.09
2023-05-02T00:38:15.838Z,100344.22
2023-05-02T00:40:53.148Z,100339.88
2023-05-02T00:43:20.694Z,100334.53
2023-05-02T00:45:47.717Z,100333.06
2023-05-02T00:48:14.969Z,100343.94
2023-05-02T00:50:43.145Z,100342.28
2023-05-02T00:53:11.103Z,100339.97
2023-05-02T00:55:38.426Z,100333.34
2023-05-02T00:58:11.860Z,100338.50
2023-05-02T01:00:57.371Z,100324.06
2023-05-02T01:03:54.109Z,100325.53
2023-05-02T01:06:54.056Z,100334.38
2023-05-02T01:09:34.597Z,100332.25
2023-05-02T01:12:41.016Z,100335.13
2023-05-02T01:15:11.520Z,100324.81
2023-05-02T01:17:41.050Z,100322.97
2023-05-02T01:20:12.442Z,100312.84
2023-05-02T01:22:41.157Z,100319.09
2023-05-02T01:25:17.036Z,100313.94
2023-05-02T01:28:16.979Z,100312.84
2023-05-02T01:30:46.378Z,100308.31
2023-05-02T01:33:17.568Z,100312.06
2023-05-02T01:35:49.842Z,100307.56
2023-05-02T01:38:19.160Z,100313.53
2023-05-02T01:40:47.085Z,100299.72
2023-05-02T01:43:15.707Z,100311.88
2023-05-02T01:45:44.671Z,100311.53
2023-05-02T01:48:13.701Z,100302.84
2023-05-02T01:50:44.581Z,100303.44
2023-05-02T01:53:13.993Z,100310.88
2023-05-02T01:55:43.762Z,100301.75
2023-05-02T01:58:15.679Z,100304.44
2023-05-02T02:00:45.641Z,100304.63
2023-05-02T02:03:15.162Z,100302.53
2023-05-02T02:05:42.947Z,100306.03
2023-05-02T02:08:09.790Z,100300.03
2023-05-02T02:10:43.607Z,100306.22
2023-05-02T02:13:26.556Z,100305.56
2023-05-02T02:16:01.263Z,100304.94
2023-05-02T02:18:29.501Z,100301.59
2023-05-02T02:20:59.127Z,100274.47
2023-05-02T02:23:28.370Z,100293.97
2023-05-02T02:25:57.444Z,100299.31
2023-05-02T02:28:24.322Z,100302.16
2023-05-02T02:30:51.337Z,100306.69
2023-05-02T02:33:19.746Z,100294.72
2023-05-02T02:35:53.851Z,100301.34
2023-05-02T02:38:31.820Z,100302.38
2023-05-02T02:41:15.087Z,100303.38
2023-05-02T02:44:01.383Z,100303.75
2023-05-02T02:46:34.125Z,100304.75
2023-05-02T02:49:13.400Z,100300.44
2023-05-02T02:51:47.179Z,100280.19
2023-05-02T02:54:37.795Z,100304.94
2023-05-02T02:57:14.061Z,100309.66
2023-05-02T02:59:54.453Z,100315.34
2023-05-02T03:02:27.477Z,100313.16
2023-05-02T03:04:56.083Z,100322.19
2023-05-02T03:07:23.557Z,100308.09
2023-05-02T03:09:50.978Z,100321.16
2023-05-02T03:12:22.793Z,100333.72
2023-05-02T03:14:51.073Z,100332.53
2023-05-02T03:17:18.099Z,100325.22
2023-05-02T03:19:45.848Z,100333.16
2023-05-02T03:22:12.689Z,100340.34
2023-05-02T03:24:39.919Z,100334.16
2023-05-02T03:27:06.942Z,100335.34
2023-05-02T03:29:39.693Z,100328.09
2023-05-02T03:32:06.707Z,100336.94
2023-05-02T03:34:34.875Z,100329.28
2023-05-02T03:37:01.805Z,100335.91
2023-05-02T03:39:29.663Z,100320.34
2023-05-02T03:41:56.557Z,100338.59
2023-05-02T03:44:24.561Z,100338.59
2023-05-02T03:46:52.426Z,100338.22
2023-05-02T03:49:20.118Z,100344.22
2023-05-02T03:51:48.792Z,100337.69
2023-05-02T03:54:20.463Z,100329.28
2023-05-02T03:56:47.947Z,100338.38
2023-05-02T03:59:21.313Z,100340.06
2023-05-02T04:01:51.772Z,100335.91
2023-05-02T04:04:23.002Z,100330.38
2023-05-02T04:06:52.185Z,100334.53
2023-05-02T04:09:23.630Z,100340.88
2023-05-02T04:11:54.546Z,100329.19
2023-05-02T04:14:21.517Z,100330.06
2023-05-02T04:16:51.967Z,100340.97
2023-05-02T04:19:35.742Z,100349.59
2023-05-02T04:22:03.831Z,100338.00
2023-05-02T04:24:34.426Z,100348.31
2023-05-02T04:27:01.702Z,100346.91
2023-05-02T04:29:28.474Z,100348.56
2023-05-02T04:31:58.330Z,100345.13
2023-05-02T04:34:28.510Z,100347.91
2023-05-02T04:36:55.616Z,100356.22
2023-05-02T04:39:24.640Z,100355.81
2023-05-02T04:41:59.568Z,100361.66
2023-05-02T04:44:28.247Z,100362.63
2023-05-02T04:46:56.417Z,100366.13
2023-05-02T04:49:23.305Z,100371.66
2023-05-02T04:51:52.062Z,100369.56
2023-05-02T04:54:19.011Z,100370.00
2023-05-02T04:56:46.712Z,100365.31
2023-05-02T04:59:14.190Z,100366.88
2023-05-02T05:01:41.233Z,100372.66
2023-05-02T05:04:09.612Z,100372.94
2023-05-02T05:06:36.670Z,100379.19
2023-05-02T05:09:04.533Z,100384.72
2023-05-02T05:11:33.776Z,100381.50
2023-05-02T05:14:01.215Z,100389.34
2023-05-02T05:16:28.870Z,100389.34
2023-05-02T05:18:55.881Z,100388.53
2023-05-02T05:21:22.566Z,100385.84
2023-05-02T05:23:50.092Z,100372.34
2023-05-02T05:26:25.272Z,100375.69
2023-05-02T05:28:52.237Z,100378.38
2023-05-02T05:31:21.064Z,100386.66
2023-05-02T05:33:51.967Z,100390.19
2023-05-02T05:36:22.856Z,100386.03
2023-05-02T05:38:51.401Z,100396.16
2023-05-02T05:41:18.764Z,100400.88
2023-05-02T05:43:49.507Z,100407.53
2023-05-02T05:46:16.416Z,100399.41
2023-05-02T05:48:43.056Z,100404.19
2023-05-02T05:51:10.452Z,100407.94
2023-05-02T05:53:37.394Z,100406.31
2023-05-02T05:56:10.816Z,100404.72
2023-05-02T05:58:40.254Z,100409.50
2023-05-02T06:01:08.370Z,100411.72
2023-05-02T06:03:36.364Z,100409.00
2023-05-02T06:06:03.684Z,100424.09
2023-05-02T06:08:30.604Z,100423.53
2023-05-02T06:10:57.328Z,100418.63
2023-05-02T06:13:24.224Z,100415.31
2023-05-02T06:15:51.419Z,100422.38
2023-05-02T06:18:18.356Z,100431.25
2023-05-02T06:20:45.120Z,100421.59
2023-05-02T06:23:11.896Z,100416.31
2023-05-02T06:25:38.729Z,100423.63
2023-05-02T06:28:05.848Z,100425.28
2023-05-02T06:30:32.633Z,100417.38
2023-05-02T06:32:59.541Z,100423.00
2023-05-02T06:35:26.346Z,100424.22
2023-05-02T06:37:53.084Z,100421.13
2023-05-02T06:40:19.781Z,100421.59
2023-05-02T06:42:46.571Z,100437.28
2023-05-02T06:45:13.580Z,100424.41
2023-05-02T06:47:40.302Z,100431.25
2023-05-02T06:50:07.774Z,100440.16
2023-05-02T06:52:34.490Z,100423.88
2023-05-02T06:55:01.232Z,100424.06
2023-05-02T06:57:28.055Z,100434.72
2023-05-02T06:59:55.103Z,100440.34
2023-05-02T07:02:22.499Z,100433.75
2023-05-02T07:04:49.318Z,100440.66
2023-05-02T07:07:18.999Z,100446.91
2023-05-02T07:09:46.092Z,100449.81
2023-05-02T07:12:12.841Z,100448.38
2023-05-02T07:14:39.635Z,100449.03
2023-05-02T07:17:06.823Z,100449.88
2023-05-02T07:19:33.647Z,100450.25
2023-05-02T07:22:00.332Z,100454.38
2023-05-02T07:24:27.117Z,100451.31
2023-05-02T07:26:53.847Z,100435.38
2023-05-02T07:29:20.666Z,100448.63
2023-05-02T07:31:47.516Z,100464.75
2023-05-02T07:34:14.347Z,100460.81
2023-05-02T07:36:41.142Z,100454.25
2023-05-02T07:39:07.962Z,100466.63
2023-05-02T07:41:34.674Z,100464.56
2023-05-02T07:44:02.196Z,100457.78
2023-05-02T07:46:29.022Z,100458.75
2023-05-02T07:48:56.035Z,100452.06
2023-05-02T07:51:22.852Z,100463.06
2023-05-02T07:53:58.683Z,100470.31
2023-05-02T07:56:25.884Z,100464.56
2023-05-02T07:58:52.891Z,100464.78
2023-05-02T08:01:20.445Z,100471.44
2023-05-02T08:03:48.666Z,100466.47
2023-05-02T08:06:15.662Z,100473.66
2023-05-02T08:08:42.427Z,100471.41
2023-05-02T08:11:09.443Z,100460.91
2023-05-02T08:13:36.194Z,100463.41
2023-05-02T08:16:03.002Z,100470.66
2023-05-02T08:18:29.773Z,100477.28
2023-05-02T08:20:58.564Z,100481.03
2023-05-02T08:23:25.403Z,100475.88
2023-05-02T08:25:52.160Z,100473.81
2023-05-02T08:28:19.758Z,100482.13
2023-05-02T08:30:46.527Z,100476.75
2023-05-02T08:33:13.291Z,100465.78
2023-05-02T08:35:40.550Z,100483.59
2023-05-02T08:38:07.639Z,100474.91
2023-05-02T08:40:42.061Z,100480.72
2023-05-02T08:43:11.859Z,100476.59
2023-05-02T08:45:44.076Z,100477.59
2023-05-02T08:48:12.835Z,100473.47
2023-05-02T08:50:41.826Z,100474.94
2023-05-02T08:53:10.046Z,100471.09
2023-05-02T08:55:40.052Z,100469.25
2023-05-02T08:58:08.484Z,100467.84
2023-05-02T09:00:42.760Z,100466.19
2023-05-02T09:03:16.323Z,100465.56
2023-05-02T09:05:43.267Z,100473.00
2023-05-02T09:08:10.051Z,100468.28
2023-05-02T09:10:37.754Z,100472.19
2023-05-02T09:13:46.889Z,100474.28
2023-05-02T09:16:24.223Z,100474.50
2023-05-02T09:18:54.876Z,100467.03
2023-05-02T09:21:23.513Z,100468.66
2023-05-02T09:23:59.068Z,100475.06
2023-05-02T09:26:32.662Z,100468.66
2023-05-02T09:29:01.872Z,100466.19
2023-05-02T09:31:54.110Z,100469.91
2023-05-02T09:34:21.828Z,100471.34
2023-05-02T09:36:52.144Z,100464.31
2023-05-02T09:39:25.528Z,100470.53
2023-05-02T09:41:53.639Z,100474.88
2023-05-02T09:44:24.705Z,100482.97
2023-05-02T09:46:56.315Z,100473.44
2023-05-02T09:49:45.067Z,100473.44
2023-05-02T09:52:18.039Z,100471.34
2023-05-02T09:54:46.723Z,100462.44
2023-05-02T09:57:13.883Z,100462.25
2023-05-02T09:59:41.504Z,100470.88
2023-05-02T10:02:12.026Z,100472.56
2023-05-02T10:04:40.005Z,100480.63
2023-05-02T10:07:10.558Z,100474.81
2023-05-02T10:09:43.346Z,100482.66
2023-05-02T10:12:10.121Z,100476.44
2023-05-02T10:14:41.614Z,100479.75
2023-05-02T10:17:13.290Z,100482.22
2023-05-02T10:19:57.122Z,100475.00
2023-05-02T10:22:25.691Z,100475.00
2023-05-02T10:24:53.525Z,100469.41
2023-05-02T10:27:20.407Z,100476.81
2023-05-02T10:29:47.645Z,100464.78
2023-05-02T10:32:17.171Z,100472.88
2023-05-02T10:34:44.500Z,100472.44
2023-05-02T10:37:12.561Z,100477.78
2023-05-02T10:39:39.415Z,100474.66
2023-05-02T10:42:07.652Z,100464.31
2023-05-02T10:44:35.996Z,100474.00
2023-05-02T10:47:20.124Z,100480.22
2023-05-02T10:49:58.006Z,100480.19
2023-05-02T10:52:36.800Z,100483.66
2023-05-02T10:55:23.011Z,100485.44
2023-05-02T10:58:02.060Z,100482.50
2023-05-02T11:00:33.853Z,100477.28
2023-05-02T11:03:02.482Z,100477.84
2023-05-02T11:05:29.676Z,100474.09
2023-05-02T11:08:15.035Z,100476.13
2023-05-02T11:10:42.168Z,100469.25
2023-05-02T11:13:09.498Z,100463.88
2023-05-02T11:15:42.340Z,100463.78
2023-05-02T11:18:13.197Z,100473.88
2023-05-02T11:20:42.096Z,100472.94
2023-05-02T11:23:26.940Z,100476.47
2023-05-02T11:26:00.535Z,100472.31
2023-05-02T11:28:43.065Z,100475.31
2023-05-02T11:31:30.789Z,100476.94
2023-05-02T11:34:02.746Z,100475.72
2023-05-02T11:36:33.924Z,100472.44
2023-05-02T11:39:02.118Z,100480.44
2023-05-02T11:41:43.933Z,100469.03
2023-05-02T11:44:10.816Z,100467.00
2023-05-02T11:46:39.602Z,100468.06
2023-05-02T11:49:09.431Z,100473.25
2023-05-02T11:51:37.731Z,100478.69
2023-05-02T11:54:07.685Z,100483.66
2023-05-02T11:56:34.502Z,100475.81
2023-05-02T11:59:04.476Z,100476.25
2023-05-02T12:01:31.511Z,100480.19
2023-05-02T12:04:08.402Z,100482.66
2023-05-02T12:06:35.849Z,100482.03
2023-05-02T12:09:19.309Z,100484.31
2023-05-02T12:11:52.201Z,100475.22
2023-05-02T12:14:27.207Z,100464.06
2023-05-02T12:16:55.141Z,100491.38
2023-05-02T12:19:22.640Z,100486.78
2023-05-02T12:21:50.742Z,100491.75
2023-05-02T12:24:17.641Z,100477.47
2023-05-02T12:26:44.484Z,100475.63
2023-05-02T12:29:12.608Z,100483.50
2023-05-02T12:31:40.068Z,100477.91
2023-05-02T12:34:06.935Z,100478.75
2023-05-02T12:36:34.146Z,100478.13
2023-05-02T12:39:03.863Z,100486.81
2023-05-02T12:41:37.811Z,100474.78
2023-05-02T12:44:06.147Z,100473.59
2023-05-02T12:46:33.130Z,100476.91
2023-05-02T12:49:09.539Z,100459.97
2023-05-02T12:51:37.353Z,100472.19
2023-05-02T12:54:04.384Z,100468.28
2023-05-02T12:56:43.931Z,100467.03
2023-05-02T12:59:25.653Z,100477.34
2023-05-02T13:01:52.376Z,100473.22
2023-05-02T13:04:19.200Z,100467.19
2023-05-02T13:06:47.253Z,100470.50
2023-05-02T13:09:14.049Z,100466.16
2023-05-02T13:11:40.722Z,100461.97
2023-05-02T13:14:07.624Z,100461.56
2023-05-02T13:16:36.762Z,100464.84
2023-05-02T13:19:03.689Z,100458.88
2023-05-02T13:21:31.272Z,100464.91
2023-05-02T13:23:58.890Z,100456.59
2023-05-02T13:26:25.595Z,100456.97
2023-05-02T13:28:52.345Z,100448.78
2023-05-02T13:31:19.113Z,100453.72
2023-05-02T13:33:46.176Z,100451.88
2023-05-02T13:36:12.891Z,100457.41
2023-05-02T13:38:39.656Z,100455.94
2023-05-02T13:41:06.370Z,100460.53
2023-05-02T13:43:33.102Z,100451.59
2023-05-02T13:46:00.372Z,100454.94
2023-05-02T13:48:27.460Z,100458.88
2023-05-02T13:50:54.228Z,100454.59
2023-05-02T13:53:21.018Z,100448.56
2023-05-02T13:55:47.861Z,100453.81
2023-05-02T13:58:14.669Z,100457.13
2023-05-02T14:00:41.464Z,100448.00
2023-05-02T14:03:11.222Z,100455.66
2023-05-02T14:05:41.094Z,100455.50
2023-05-02T14:08:07.745Z,100444.31
2023-05-02T14:10:36.380Z,100447.44
2023-05-02T14:13:03.179Z,100442.09
2023-05-02T14:15:30.071Z,100458.03
2023-05-02T14:17:57.316Z,100450.34
2023-05-02T14:20:24.125Z,100448.47
2023-05-02T14:22:50.812Z,100450.34
2023-05-02T14:25:19.737Z,100452.03
2023-05-02T14:27:47.147Z,100439.97
2023-05-02T14:30:13.908Z,100447.22
2023-05-02T14:32:40.915Z,100464.63
2023-05-02T14:35:08.034Z,100462.59
2023-05-02T14:37:34.735Z,100462.00
2023-05-02T14:40:01.721Z,100469.50
2023-05-02T14:42:28.708Z,100471.97
2023-05-02T14:44:57.495Z,100472.78
2023-05-02T14:47:28.715Z,100463.50
2023-05-02T14:49:55.367Z,100472.19
2023-05-02T14:52:22.482Z,100480.06
2023-05-02T14:54:49.219Z,100483.56
2023-05-02T14:57:16.467Z,100481.31
2023-05-02T14:59:43.459Z,100483.13
2023-05-02T15:02:10.310Z,100476.94
2023-05-02T15:04:37.630Z,100497.00
2023-05-02T15:07:04.841Z,100494.31
2023-05-02T15:09:31.724Z,100493.31
2023-05-02T15:11:58.464Z,100514.19
2023-05-02T15:14:25.318Z,100525.53
2023-05-02T15:16:52.025Z,100528.84
2023-05-02T15:19:18.765Z,100540.84
2023-05-02T15:21:45.583Z,100554.91
2023-05-02T15:24:12.324Z,100566.06
2023-05-02T15:26:40.518Z,100564.81
2023-05-02T15:29:07.495Z,100558.13
2023-05-02T15:31:34.691Z,100565.75
2023-05-02T15:34:01.439Z,100560.53
2023-05-02T15:36:32.868Z,100573.25
2023-05-02T15:38:59.614Z,100570.56
2023-05-02T15:41:27.487Z,100575.69
2023-05-02T15:43:54.290Z,100573.56
2023-05-02T15:46:21.102Z,100580.41
2023-05-02T15:48:48.272Z,100585.34
2023-05-02T15:51:15.202Z,100586.53
2023-05-02T15:53:44.381Z,100585.88
2023-05-02T15:56:12.197Z,100576.91
2023-05-02T15:58:39.443Z,100577.69
2023-05-02T16:01:06.551Z,100588.81
2023-05-02T16:03:34.349Z,100591.44
2023-05-02T16:06:01.649Z,100588.00
2023-05-02T16:08:28.725Z,100592.28
2023-05-02T16:10:56.086Z,100597.84
2023-05-02T16:13:22.811Z,100594.03
2023-05-02T16:15:49.641Z,100600.47
2023-05-02T16:18:16.574Z,100603.25
2023-05-02T16:20:43.718Z,100609.13
2023-05-02T16:23:10.620Z,100609.91
2023-05-02T16:25:37.298Z,100610.72
2023-05-02T16:28:04.124Z,100612.31
2023-05-02T16:30:30.941Z,100605.75
2023-05-02T16:32:57.704Z,100611.22
2023-05-02T16:35:24.733Z,100599.72
2023-05-02T16:37:51.509Z,100611.72
2023-05-02T16:40:18.493Z,100605.97
2023-05-02T16:42:45.147Z,100606.16
2023-05-02T16:45:11.909Z,100599.75
2023-05-02T16:47:38.764Z,100604.28
2023-05-02T16:50:06.903Z,100608.78
2023-05-02T16:52:36.593Z,100607.78
2023-05-02T16:55:04.156Z,100606.38
2023-05-02T16:57:31.314Z,100601.03
2023-05-02T16:59:58.722Z,100601.41
2023-05-02T17:02:25.465Z,100606.84
2023-05-02T17:04:52.206Z,100597.16
2023-05-02T17:07:19.001Z,100604.19
2023-05-02T17:09:45.770Z,100589.50
2023-05-02T17:12:12.869Z,100590.97
2023-05-02T17:14:42.813Z,100598.25
2023-05-02T17:17:10.095Z,100586.25
2023-05-02T17:19:37.249Z,100609.72
2023-05-02T17:22:05.393Z,100605.00
2023-05-02T17:24:33.125Z,100607.69
2023-05-02T17:27:00.961Z,100619.59
2023-05-02T17:29:27.822Z,100629.00
2023-05-02T17:31:57.384Z,100625.13
2023-05-02T17:34:28.521Z,100622.94
2023-05-02T17:36:56.018Z,100624.16
2023-05-02T17:39:23.199Z,100627.19
2023-05-02T17:41:49.987Z,100626.25
2023-05-02T17:44:16.746Z,100636.53
2023-05-02T17:46:43.664Z,100639.38
2023-05-02T17:49:10.498Z,100648.81
2023-05-02T17:51:37.319Z,100642.25
2023-05-02T17:54:04.224Z,100653.69
2023-05-02T17:56:34.559Z,100661.53
2023-05-02T17:59:01.218Z,100673.91
2023-05-02T18:01:27.958Z,100658.69
2023-05-02T18:03:54.924Z,100665.25
2023-05-02T18:06:21.951Z,100668.28
2023-05-02T18:08:48.757Z,100666.53
2023-05-02T18:11:19.959Z,100670.31
2023-05-02T18:13:46.868Z,100680.56
2023-05-02T18:16:14.309Z,100678.03
2023-05-02T18:18:41.673Z,100675.28
2023-05-02T18:21:09.608Z,100683.03
2023-05-02T18:23:36.441Z,100687.81
2023-05-02T18:26:03.807Z,100690.69
2023-05-02T18:28:30.525Z,100688.38
2023-05-02T18:30:57.403Z,100684.03
2023-05-02T18:33:24.305Z,100675.28
2023-05-02T18:35:51.044Z,100679.03
2023-05-02T18:38:18.325Z,100678.09
2023-05-02T18:40:45.218Z,100693.06
2023-05-02T18:43:11.936Z,100693.06
2023-05-02T18:45:38.870Z,100683.25
2023-05-02T18:48:05.991Z,100695.88
2023-05-02T18:50:32.879Z,100701.50
2023-05-02T18:52:59.584Z,100707.59
2023-05-02T18:55:26.396Z,100700.31
2023-05-02T18:57:53.062Z,100714.88
2023-05-02T19:00:20.573Z,100714.69
2023-05-02T19:02:47.959Z,100704.69
2023-05-02T19:05:15.168Z,100711.16
2023-05-02T19:07:42.457Z,100724.38
2023-05-02T19:10:11.225Z,100725.56
2023-05-02T19:12:38.411Z,100737.06
2023-05-02T19:15:06.629Z,100744.09
2023-05-02T19:17:33.812Z,100740.06
2023-05-02T19:20:01.325Z,100752.75
2023-05-02T19:22:28.051Z,100753.13
2023-05-02T19:24:55.234Z,100751.28
2023-05-02T19:27:21.954Z,100766.50
2023-05-02T19:29:48.637Z,100751.06
2023-05-02T19:32:15.980Z,100746.72
2023-05-02T19:34:42.709Z,100755.09
2023-05-02T19:37:09.431Z,100749.19
2023-05-02T19:39:36.240Z,100742.31
2023-05-02T19:42:03.296Z,100742.53
2023-05-02T19:44:30.555Z,100754.41
2023-05-02T19:46:57.242Z,100742.25
2023-05-02T19:49:24.241Z,100749.63
2023-05-02T19:51:50.959Z,100758.78
2023-05-02T19:54:17.677Z,100758.34
2023-05-02T19:56:44.459Z,100757.41
2023-05-02T19:59:11.296Z,100755.22
2023-05-02T20:01:38.157Z,100760.75
2023-05-02T20:04:04.907Z,100761.81
2023-05-02T20:06:32.377Z,100749.66
2023-05-02T20:08:59.241Z,100760.50
2023-05-02T20:11:26.330Z,100761.69
2023-05-02T20:13:54.469Z,100761.50
2023-05-02T20:16:21.324Z,100764.88
2023-05-02T20:18:48.077Z,100780.34
2023-05-02T20:21:15.015Z,100766.56
2023-05-02T20:23:43.426Z,100773.84
2023-05-02T20:26:10.685Z,100778.38
2023-05-02T20:28:37.944Z,100787.63
2023-05-02T20:31:04.838Z,100782.09
2023-05-02T20:33:43.787Z,100789.00
2023-05-02T20:36:14.425Z,100785.50
2023-05-02T20:38:43.076Z,100777.16
2023-05-02T20:41:14.189Z,100768.03
2023-05-02T20:43:44.828Z,100789.22
2023-05-02T20:46:14.044Z,100785.03
2023-05-02T20:48:41.109Z,100775.88
2023-05-02T20:51:08.707Z,100792.44
2023-05-02T20:53:38.028Z,100788.09
2023-05-02T20:56:05.019Z,100791.25
2023-05-02T20:58:31.802Z,100799.25
2023-05-02T21:00:59.244Z,100778.75
2023-05-02T21:03:27.341Z,100791.94
2023-05-02T21:05:55.781Z,100787.44
2023-05-02T21:08:23.288Z,100789.59
2023-05-02T21:10:50.151Z,100788.84
2023-05-02T21:13:17.369Z,100791.16
2023-05-02T21:15:44.223Z,100781.97
2023-05-02T21:18:11.088Z,100789.59
2023-05-02T21:20:39.705Z,100776.94
2023-05-02T21:23:06.496Z,100789.28
2023-05-02T21:25:33.443Z,100794.78
2023-05-02T21:28:00.191Z,100796.66
2023-05-02T21:30:26.973Z,100787.59
2023-05-02T21:32:53.869Z,100790.81
2023-05-02T21:35:20.637Z,100790.78
2023-05-02T21:37:47.330Z,100795.97
2023-05-02T21:40:14.098Z,100798.63
2023-05-02T21:42:41.398Z,100796.28
2023-05-02T21:45:08.709Z,100799.59
2023-05-02T21:47:35.532Z,100798.94
2023-05-02T21:50:02.488Z,100806.84
2023-05-02T21:52:29.433Z,100811.97
2023-05-02T21:54:57.518Z,100807.81
2023-05-02T21:57:24.225Z,100811.97
2023-05-02T21:59:50.897Z,100820.94
2023-05-02T22:02:17.739Z,100828.81
2023-05-02T22:04:48.321Z,100828.34
2023-05-02T22:07:16.057Z,100835.19
2023-05-02T22:09:42.879Z,100833.00
2023-05-02T22:12:09.656Z,100831.31
2023-05-02T22:14:44.281Z,100835.00
2023-05-02T22:17:11.790Z,100843.47
2023-05-02T22:19:39.358Z,100841.38
2023-05-02T22:22:06.710Z,100850.03
2023-05-02T22:24:33.607Z,100852.03
2023-05-02T22:27:00.553Z,100854.53
2023-05-02T22:29:27.349Z,100854.00
2023-05-02T22:31:54.122Z,100853.53
2023-05-02T22:34:20.899Z,100858.69
2023-05-02T22:36:47.649Z,100854.16
2023-05-02T22:39:15.749Z,100864.38
2023-05-02T22:41:43.182Z,100858.69
2023-05-02T22:44:11.095Z,100860.69
2023-05-02T22:46:38.777Z,100852.16
2023-05-02T22:49:07.797Z,100859.50
2023-05-02T22:51:34.600Z,100854.69
2023-05-02T22:54:04.817Z,100844.00
2023-05-02T22:56:31.635Z,100856.03
2023-05-02T22:58:58.376Z,100858.53
2023-05-02T23:01:25.279Z,100854.53
2023-05-02T23:03:52.078Z,100860.09
2023-05-02T23:06:19.224Z,100848.78
2023-05-02T23:08:46.017Z,100851.75
2023-05-02T23:11:12.759Z,100845.94
2023-05-02T23:13:39.489Z,100840.75
2023-05-02T23:16:06.400Z,100850.28
2023-05-02T23:18:33.377Z,100849.28
2023-05-02T23:21:00.586Z,100851.81
2023-05-02T23:23:27.397Z,100848.28
2023-05-02T23:25:54.190Z,100845.78
2023-05-02T23:28:20.942Z,100840.09
2023-05-02T23:30:48.688Z,100842.75
2023-05-02T23:33:15.614Z,100839.44
2023-05-02T23:35:42.574Z,100831.44
2023-05-02T23:38:09.319Z,100838.59
2023-05-02T23:40:36.132Z,100827.91
2023-05-02T23:43:03.012Z,100828.44
2023-05-02T23:45:29.776Z,100827.78
2023-05-02T23:47:56.586Z,100825.41
2023-05-02T23:50:23.326Z,100818.91
2023-05-02T23:52:50.060Z,100834.75
2023-05-02T23:55:16.934Z,100829.41
2023-05-02T23:57:43.656Z,100824.78
